Accueil
METAR-TAF:

METAR-TAF

Aéroports :

Montauk, New York, États-Unis

latitude: 41-04-23N, longitude: 071-55-24W, altitude: 2 m

Observation

Le bulletin a été fait il y a 25 minutes, à 12:54 UTC
Vent 3 kt de direction variable
Température 25°C
Humidité 83%
Pression 1009 hPa

METAR: KMTP 131254Z AUTO VRB03KT 25/22 A2980 RMK AO1 SLP089 T02500217

Heure: 09:19 (13:19 UTC)


TAF: absent

Observations et prévisions météorologiques de plus de 4000 aéroports (messages METAR et TAF).

Les stations disponibles sont représentées par des disques jaunes et rouges sur la carte.

Passer la souris dessus pour voir le nom de la station.

Cliquer dessus pour voir les observations et prévisions météorologiques.

Pour changer de carte: cliquez sur les boutons verts avec une croix noire pour zoomer, sur le bouton vert avec un tiret pour effectuer un zoom arrière, ou sur les flèches vertes pour les cartes adjacentes.


METAR-TAF: